sensor_id;sensor_type;location;lat;lon;timestamp;P1;durP1;ratioP1;P2;durP2;ratioP2
12790;SDS011;6459;42.678;23.310;2022-08-21T00:01:50;20.57;;;12.87;;
12790;SDS011;6459;42.678;23.310;2022-08-21T00:04:20;22.80;;;13.27;;
12790;SDS011;6459;42.678;23.310;2022-08-21T00:06:55;21.47;;;12.93;;
12790;SDS011;6459;42.678;23.310;2022-08-21T00:09:24;20.53;;;12.70;;
12790;SDS011;6459;42.678;23.310;2022-08-21T00:11:54;22.17;;;13.30;;
12790;SDS011;6459;42.678;23.310;2022-08-21T00:14:22;23.83;;;12.70;;
12790;SDS011;6459;42.678;23.310;2022-08-21T00:16:50;22.43;;;12.93;;
12790;SDS011;6459;42.678;23.310;2022-08-21T00:19:25;22.40;;;12.43;;
12790;SDS011;6459;42.678;23.310;2022-08-21T00:21:56;21.23;;;12.37;;
12790;SDS011;6459;42.678;23.310;2022-08-21T00:24:25;13.97;;;9.33;;
12790;SDS011;6459;42.678;23.310;2022-08-21T00:26:56;14.97;;;9.33;;
12790;SDS011;6459;42.678;23.310;2022-08-21T00:29:25;20.00;;;11.30;;
12790;SDS011;6459;42.678;23.310;2022-08-21T00:31:54;14.97;;;10.30;;
12790;SDS011;6459;42.678;23.310;2022-08-21T00:34:23;14.70;;;9.70;;
12790;SDS011;6459;42.678;23.310;2022-08-21T00:36:51;16.07;;;8.73;;
12790;SDS011;6459;42.678;23.310;2022-08-21T00:39:20;17.60;;;9.53;;
12790;SDS011;6459;42.678;23.310;2022-08-21T00:41:48;15.40;;;8.93;;
12790;SDS011;6459;42.678;23.310;2022-08-21T00:44:18;17.57;;;9.90;;
12790;SDS011;6459;42.678;23.310;2022-08-21T00:46:46;23.53;;;10.83;;
12790;SDS011;6459;42.678;23.310;2022-08-21T00:49:14;16.67;;;10.30;;
12790;SDS011;6459;42.678;23.310;2022-08-21T00:51:43;16.40;;;10.13;;
12790;SDS011;6459;42.678;23.310;2022-08-21T00:54:16;15.20;;;9.13;;
12790;SDS011;6459;42.678;23.310;2022-08-21T00:56:47;14.90;;;9.07;;
12790;SDS011;6459;42.678;23.310;2022-08-21T00:59:22;17.27;;;9.20;;
12790;SDS011;6459;42.678;23.310;2022-08-21T01:01:53;14.93;;;9.03;;
12790;SDS011;6459;42.678;23.310;2022-08-21T01:04:22;14.63;;;8.73;;
12790;SDS011;6459;42.678;23.310;2022-08-21T01:06:51;13.00;;;9.03;;
12790;SDS011;6459;42.678;23.310;2022-08-21T01:09:21;21.63;;;9.23;;
12790;SDS011;6459;42.678;23.310;2022-08-21T01:11:49;13.97;;;9.43;;
12790;SDS011;6459;42.678;23.310;2022-08-21T01:14:19;12.80;;;8.20;;
12790;SDS011;6459;42.678;23.310;2022-08-21T01:16:50;13.83;;;7.63;;
12790;SDS011;6459;42.678;23.310;2022-08-21T01:19:20;13.97;;;7.63;;
12790;SDS011;6459;42.678;23.310;2022-08-21T01:21:51;15.00;;;8.10;;
12790;SDS011;6459;42.678;23.310;2022-08-21T01:24:20;14.80;;;7.63;;
12790;SDS011;6459;42.678;23.310;2022-08-21T01:26:49;13.10;;;7.93;;
12790;SDS011;6459;42.678;23.310;2022-08-21T01:32:07;12.00;;;8.00;;
12790;SDS011;6459;42.678;23.310;2022-08-21T01:34:40;11.03;;;7.23;;
12790;SDS011;6459;42.678;23.310;2022-08-21T01:37:18;14.67;;;8.10;;
12790;SDS011;6459;42.678;23.310;2022-08-21T01:39:48;10.83;;;7.60;;
12790;SDS011;6459;42.678;23.310;2022-08-21T01:42:16;14.67;;;8.37;;
12790;SDS011;6459;42.678;23.310;2022-08-21T01:44:45;15.77;;;8.73;;
12790;SDS011;6459;42.678;23.310;2022-08-21T01:47:14;13.27;;;8.50;;
12790;SDS011;6459;42.678;23.310;2022-08-21T01:49:44;12.07;;;7.63;;
12790;SDS011;6459;42.678;23.310;2022-08-21T01:52:13;13.57;;;7.80;;
12790;SDS011;6459;42.678;23.310;2022-08-21T01:54:42;14.77;;;7.97;;
12790;SDS011;6459;42.678;23.310;2022-08-21T01:57:20;12.67;;;7.90;;
12790;SDS011;6459;42.678;23.310;2022-08-21T01:59:52;11.83;;;7.20;;
12790;SDS011;6459;42.678;23.310;2022-08-21T02:02:20;7.57;;;6.20;;
12790;SDS011;6459;42.678;23.310;2022-08-21T02:04:49;8.17;;;6.10;;
12790;SDS011;6459;42.678;23.310;2022-08-21T02:07:17;8.77;;;6.40;;
12790;SDS011;6459;42.678;23.310;2022-08-21T02:09:47;10.50;;;7.47;;
12790;SDS011;6459;42.678;23.310;2022-08-21T02:12:17;10.00;;;7.47;;
12790;SDS011;6459;42.678;23.310;2022-08-21T02:14:45;10.80;;;8.20;;
12790;SDS011;6459;42.678;23.310;2022-08-21T02:17:13;11.73;;;7.67;;
12790;SDS011;6459;42.678;23.310;2022-08-21T02:19:44;11.57;;;7.47;;
12790;SDS011;6459;42.678;23.310;2022-08-21T02:22:12;13.67;;;7.33;;
12790;SDS011;6459;42.678;23.310;2022-08-21T02:24:43;15.47;;;8.63;;
12790;SDS011;6459;42.678;23.310;2022-08-21T02:27:22;14.80;;;9.20;;
12790;SDS011;6459;42.678;23.310;2022-08-21T02:29:53;18.93;;;9.30;;
12790;SDS011;6459;42.678;23.310;2022-08-21T02:32:22;13.67;;;9.43;;
12790;SDS011;6459;42.678;23.310;2022-08-21T02:34:52;17.77;;;10.70;;
12790;SDS011;6459;42.678;23.310;2022-08-21T02:37:22;19.30;;;10.00;;
12790;SDS011;6459;42.678;23.310;2022-08-21T02:39:50;24.30;;;12.10;;
12790;SDS011;6459;42.678;23.310;2022-08-21T02:42:19;27.50;;;14.17;;
12790;SDS011;6459;42.678;23.310;2022-08-21T02:44:49;31.37;;;15.03;;
12790;SDS011;6459;42.678;23.310;2022-08-21T02:47:17;24.57;;;14.83;;
12790;SDS011;6459;42.678;23.310;2022-08-21T02:49:45;31.70;;;14.43;;
12790;SDS011;6459;42.678;23.310;2022-08-21T02:52:14;22.60;;;13.37;;
12790;SDS011;6459;42.678;23.310;2022-08-21T02:54:42;25.10;;;14.07;;
12790;SDS011;6459;42.678;23.310;2022-08-21T02:57:10;23.57;;;14.53;;
12790;SDS011;6459;42.678;23.310;2022-08-21T02:59:40;24.43;;;14.93;;
12790;SDS011;6459;42.678;23.310;2022-08-21T03:02:10;21.13;;;12.30;;
12790;SDS011;6459;42.678;23.310;2022-08-21T03:04:38;28.70;;;13.93;;
12790;SDS011;6459;42.678;23.310;2022-08-21T03:07:11;24.70;;;14.23;;
12790;SDS011;6459;42.678;23.310;2022-08-21T03:09:40;25.47;;;12.33;;
12790;SDS011;6459;42.678;23.310;2022-08-21T03:12:21;19.93;;;10.67;;
12790;SDS011;6459;42.678;23.310;2022-08-21T03:14:49;18.67;;;9.07;;
12790;SDS011;6459;42.678;23.310;2022-08-21T03:17:19;16.87;;;9.83;;
12790;SDS011;6459;42.678;23.310;2022-08-21T03:19:55;14.43;;;8.83;;
12790;SDS011;6459;42.678;23.310;2022-08-21T03:22:24;20.77;;;10.03;;
12790;SDS011;6459;42.678;23.310;2022-08-21T03:24:54;17.43;;;10.03;;
12790;SDS011;6459;42.678;23.310;2022-08-21T03:27:23;19.13;;;10.10;;
12790;SDS011;6459;42.678;23.310;2022-08-21T03:29:55;13.83;;;9.83;;
12790;SDS011;6459;42.678;23.310;2022-08-21T03:32:24;16.97;;;10.73;;
12790;SDS011;6459;42.678;23.310;2022-08-21T03:34:53;18.27;;;11.63;;
12790;SDS011;6459;42.678;23.310;2022-08-21T03:37:21;24.13;;;12.70;;
12790;SDS011;6459;42.678;23.310;2022-08-21T03:39:51;22.20;;;12.43;;
12790;SDS011;6459;42.678;23.310;2022-08-21T03:42:19;24.80;;;13.33;;
12790;SDS011;6459;42.678;23.310;2022-08-21T03:44:48;20.87;;;13.10;;
12790;SDS011;6459;42.678;23.310;2022-08-21T03:47:16;21.93;;;13.53;;
12790;SDS011;6459;42.678;23.310;2022-08-21T03:49:46;29.97;;;13.60;;
12790;SDS011;6459;42.678;23.310;2022-08-21T03:52:16;22.40;;;13.50;;
12790;SDS011;6459;42.678;23.310;2022-08-21T03:54:45;23.97;;;13.23;;
12790;SDS011;6459;42.678;23.310;2022-08-21T03:57:13;24.03;;;12.57;;
12790;SDS011;6459;42.678;23.310;2022-08-21T03:59:43;18.80;;;12.87;;
12790;SDS011;6459;42.678;23.310;2022-08-21T04:02:12;22.30;;;13.03;;
12790;SDS011;6459;42.678;23.310;2022-08-21T04:04:44;26.20;;;11.67;;
12790;SDS011;6459;42.678;23.310;2022-08-21T04:07:13;18.73;;;10.63;;
12790;SDS011;6459;42.678;23.310;2022-08-21T04:09:41;20.53;;;11.30;;
12790;SDS011;6459;42.678;23.310;2022-08-21T04:12:09;28.73;;;11.63;;
12790;SDS011;6459;42.678;23.310;2022-08-21T04:14:37;22.37;;;11.33;;
12790;SDS011;6459;42.678;23.310;2022-08-21T04:17:06;19.57;;;10.67;;
12790;SDS011;6459;42.678;23.310;2022-08-21T04:19:34;14.27;;;9.80;;
12790;SDS011;6459;42.678;23.310;2022-08-21T04:22:04;14.37;;;8.80;;
12790;SDS011;6459;42.678;23.310;2022-08-21T04:24:32;16.43;;;9.77;;
12790;SDS011;6459;42.678;23.310;2022-08-21T04:27:01;13.93;;;9.83;;
12790;SDS011;6459;42.678;23.310;2022-08-21T04:29:29;11.47;;;8.57;;
12790;SDS011;6459;42.678;23.310;2022-08-21T04:31:57;16.73;;;9.60;;
12790;SDS011;6459;42.678;23.310;2022-08-21T04:34:25;16.77;;;10.27;;
12790;SDS011;6459;42.678;23.310;2022-08-21T04:36:53;16.53;;;9.73;;
12790;SDS011;6459;42.678;23.310;2022-08-21T04:39:23;12.23;;;8.13;;
12790;SDS011;6459;42.678;23.310;2022-08-21T04:41:55;14.93;;;8.97;;
12790;SDS011;6459;42.678;23.310;2022-08-21T04:44:23;20.90;;;9.47;;
12790;SDS011;6459;42.678;23.310;2022-08-21T04:46:52;11.17;;;8.33;;
12790;SDS011;6459;42.678;23.310;2022-08-21T04:49:20;13.40;;;8.40;;
12790;SDS011;6459;42.678;23.310;2022-08-21T04:51:48;16.87;;;8.10;;
12790;SDS011;6459;42.678;23.310;2022-08-21T04:54:19;8.23;;;6.77;;
12790;SDS011;6459;42.678;23.310;2022-08-21T04:56:53;11.83;;;6.70;;
12790;SDS011;6459;42.678;23.310;2022-08-21T04:59:24;9.70;;;6.50;;
12790;SDS011;6459;42.678;23.310;2022-08-21T05:01:55;10.37;;;6.73;;
12790;SDS011;6459;42.678;23.310;2022-08-21T05:04:24;12.70;;;7.60;;
12790;SDS011;6459;42.678;23.310;2022-08-21T05:06:56;11.57;;;6.90;;
12790;SDS011;6459;42.678;23.310;2022-08-21T05:09:27;10.77;;;6.73;;
12790;SDS011;6459;42.678;23.310;2022-08-21T05:11:58;9.47;;;7.10;;
12790;SDS011;6459;42.678;23.310;2022-08-21T05:14:28;16.97;;;7.73;;
12790;SDS011;6459;42.678;23.310;2022-08-21T05:16:57;9.33;;;6.43;;
12790;SDS011;6459;42.678;23.310;2022-08-21T05:19:25;13.27;;;7.17;;
12790;SDS011;6459;42.678;23.310;2022-08-21T05:21:54;10.23;;;6.80;;
12790;SDS011;6459;42.678;23.310;2022-08-21T05:24:22;10.60;;;7.40;;
12790;SDS011;6459;42.678;23.310;2022-08-21T05:26:50;9.77;;;6.53;;
12790;SDS011;6459;42.678;23.310;2022-08-21T05:29:20;11.30;;;6.93;;
12790;SDS011;6459;42.678;23.310;2022-08-21T05:31:49;9.50;;;6.80;;
12790;SDS011;6459;42.678;23.310;2022-08-21T05:34:19;14.73;;;6.47;;
12790;SDS011;6459;42.678;23.310;2022-08-21T05:37:04;8.53;;;5.70;;
12790;SDS011;6459;42.678;23.310;2022-08-21T05:39:33;12.60;;;6.30;;
12790;SDS011;6459;42.678;23.310;2022-08-21T05:42:21;8.03;;;5.70;;
12790;SDS011;6459;42.678;23.310;2022-08-21T05:44:55;8.30;;;5.40;;
12790;SDS011;6459;42.678;23.310;2022-08-21T05:47:33;8.67;;;5.30;;
12790;SDS011;6459;42.678;23.310;2022-08-21T05:50:02;7.37;;;5.50;;
12790;SDS011;6459;42.678;23.310;2022-08-21T05:52:30;8.90;;;5.70;;
12790;SDS011;6459;42.678;23.310;2022-08-21T05:55:00;9.20;;;5.83;;
12790;SDS011;6459;42.678;23.310;2022-08-21T05:57:28;6.13;;;5.40;;
12790;SDS011;6459;42.678;23.310;2022-08-21T05:59:58;10.90;;;6.27;;
12790;SDS011;6459;42.678;23.310;2022-08-21T06:02:26;8.93;;;5.17;;
12790;SDS011;6459;42.678;23.310;2022-08-21T06:04:55;11.67;;;5.50;;
12790;SDS011;6459;42.678;23.310;2022-08-21T06:07:24;8.33;;;5.07;;
12790;SDS011;6459;42.678;23.310;2022-08-21T06:09:52;7.70;;;5.80;;
12790;SDS011;6459;42.678;23.310;2022-08-21T06:12:20;7.50;;;5.80;;
12790;SDS011;6459;42.678;23.310;2022-08-21T06:14:49;8.73;;;5.37;;
12790;SDS011;6459;42.678;23.310;2022-08-21T06:17:19;11.27;;;5.70;;
12790;SDS011;6459;42.678;23.310;2022-08-21T06:19:50;10.83;;;6.23;;
12790;SDS011;6459;42.678;23.310;2022-08-21T06:22:18;11.20;;;6.87;;
12790;SDS011;6459;42.678;23.310;2022-08-21T06:24:47;10.97;;;7.27;;
12790;SDS011;6459;42.678;23.310;2022-08-21T06:27:15;10.33;;;7.47;;
12790;SDS011;6459;42.678;23.310;2022-08-21T06:29:48;12.40;;;7.97;;
12790;SDS011;6459;42.678;23.310;2022-08-21T06:32:17;16.50;;;7.47;;
12790;SDS011;6459;42.678;23.310;2022-08-21T06:34:47;11.07;;;8.10;;
12790;SDS011;6459;42.678;23.310;2022-08-21T06:37:15;11.93;;;7.80;;
12790;SDS011;6459;42.678;23.310;2022-08-21T06:39:43;13.70;;;8.07;;
12790;SDS011;6459;42.678;23.310;2022-08-21T06:42:15;17.40;;;8.70;;
12790;SDS011;6459;42.678;23.310;2022-08-21T06:44:44;20.10;;;9.13;;
12790;SDS011;6459;42.678;23.310;2022-08-21T06:47:14;17.00;;;8.60;;
12790;SDS011;6459;42.678;23.310;2022-08-21T06:49:42;13.30;;;9.27;;
12790;SDS011;6459;42.678;23.310;2022-08-21T06:52:12;10.03;;;8.07;;
12790;SDS011;6459;42.678;23.310;2022-08-21T06:54:41;14.93;;;8.43;;
12790;SDS011;6459;42.678;23.310;2022-08-21T06:57:09;13.47;;;8.93;;
12790;SDS011;6459;42.678;23.310;2022-08-21T06:59:37;10.37;;;7.87;;
12790;SDS011;6459;42.678;23.310;2022-08-21T07:02:06;8.63;;;7.40;;
12790;SDS011;6459;42.678;23.310;2022-08-21T07:04:35;13.13;;;8.20;;
12790;SDS011;6459;42.678;23.310;2022-08-21T07:07:03;8.80;;;7.30;;
12790;SDS011;6459;42.678;23.310;2022-08-21T07:09:32;12.60;;;7.97;;
12790;SDS011;6459;42.678;23.310;2022-08-21T07:12:01;13.57;;;8.13;;
12790;SDS011;6459;42.678;23.310;2022-08-21T07:14:30;7.70;;;6.80;;
12790;SDS011;6459;42.678;23.310;2022-08-21T07:16:58;14.93;;;8.13;;
12790;SDS011;6459;42.678;23.310;2022-08-21T07:19:27;10.73;;;7.93;;
12790;SDS011;6459;42.678;23.310;2022-08-21T07:21:56;11.87;;;8.53;;
12790;SDS011;6459;42.678;23.310;2022-08-21T07:24:30;10.87;;;7.63;;
12790;SDS011;6459;42.678;23.310;2022-08-21T07:27:00;13.37;;;8.03;;
12790;SDS011;6459;42.678;23.310;2022-08-21T07:29:33;13.67;;;8.03;;
12790;SDS011;6459;42.678;23.310;2022-08-21T07:32:01;10.90;;;8.40;;
12790;SDS011;6459;42.678;23.310;2022-08-21T07:34:30;15.47;;;8.50;;
12790;SDS011;6459;42.678;23.310;2022-08-21T07:36:58;11.80;;;8.33;;
12790;SDS011;6459;42.678;23.310;2022-08-21T07:39:31;13.27;;;7.37;;
12790;SDS011;6459;42.678;23.310;2022-08-21T07:42:01;14.87;;;8.57;;
12790;SDS011;6459;42.678;23.310;2022-08-21T07:44:33;12.40;;;7.50;;
12790;SDS011;6459;42.678;23.310;2022-08-21T07:47:02;17.80;;;8.47;;
12790;SDS011;6459;42.678;23.310;2022-08-21T07:49:30;12.83;;;7.67;;
12790;SDS011;6459;42.678;23.310;2022-08-21T07:52:00;15.10;;;7.63;;
12790;SDS011;6459;42.678;23.310;2022-08-21T07:54:28;14.20;;;8.23;;
12790;SDS011;6459;42.678;23.310;2022-08-21T07:57:00;12.63;;;8.27;;
12790;SDS011;6459;42.678;23.310;2022-08-21T07:59:28;15.23;;;8.37;;
12790;SDS011;6459;42.678;23.310;2022-08-21T08:01:57;13.53;;;7.60;;
12790;SDS011;6459;42.678;23.310;2022-08-21T08:04:25;12.47;;;7.60;;
12790;SDS011;6459;42.678;23.310;2022-08-21T08:06:53;11.77;;;7.90;;
12790;SDS011;6459;42.678;23.310;2022-08-21T08:09:21;10.40;;;7.47;;
12790;SDS011;6459;42.678;23.310;2022-08-21T08:11:49;10.57;;;7.50;;
12790;SDS011;6459;42.678;23.310;2022-08-21T08:14:21;17.03;;;8.97;;
12790;SDS011;6459;42.678;23.310;2022-08-21T08:16:56;12.60;;;8.37;;
12790;SDS011;6459;42.678;23.310;2022-08-21T08:19:25;15.73;;;7.97;;
12790;SDS011;6459;42.678;23.310;2022-08-21T08:21:53;13.00;;;7.37;;
12790;SDS011;6459;42.678;23.310;2022-08-21T08:24:21;13.00;;;8.47;;
12790;SDS011;6459;42.678;23.310;2022-08-21T08:26:49;12.10;;;7.57;;
12790;SDS011;6459;42.678;23.310;2022-08-21T08:29:21;14.13;;;8.80;;
12790;SDS011;6459;42.678;23.310;2022-08-21T08:31:49;10.67;;;7.47;;
12790;SDS011;6459;42.678;23.310;2022-08-21T08:34:18;11.73;;;8.07;;
12790;SDS011;6459;42.678;23.310;2022-08-21T08:36:51;15.60;;;11.87;;
12790;SDS011;6459;42.678;23.310;2022-08-21T08:39:20;10.70;;;7.80;;
12790;SDS011;6459;42.678;23.310;2022-08-21T08:41:56;13.43;;;8.30;;
12790;SDS011;6459;42.678;23.310;2022-08-21T08:45:00;19.30;;;12.43;;
12790;SDS011;6459;42.678;23.310;2022-08-21T08:47:31;15.57;;;10.23;;
12790;SDS011;6459;42.678;23.310;2022-08-21T08:50:03;10.33;;;7.20;;
12790;SDS011;6459;42.678;23.310;2022-08-21T08:52:35;12.23;;;6.83;;
12790;SDS011;6459;42.678;23.310;2022-08-21T08:55:10;11.67;;;7.63;;
12790;SDS011;6459;42.678;23.310;2022-08-21T08:57:43;21.07;;;10.67;;
12790;SDS011;6459;42.678;23.310;2022-08-21T09:00:18;10.37;;;7.43;;
12790;SDS011;6459;42.678;23.310;2022-08-21T09:02:49;9.87;;;7.10;;
12790;SDS011;6459;42.678;23.310;2022-08-21T09:05:21;10.37;;;7.23;;
12790;SDS011;6459;42.678;23.310;2022-08-21T09:07:59;11.90;;;7.30;;
12790;SDS011;6459;42.678;23.310;2022-08-21T09:10:51;10.43;;;6.90;;
12790;SDS011;6459;42.678;23.310;2022-08-21T09:13:28;12.57;;;7.83;;
12790;SDS011;6459;42.678;23.310;2022-08-21T09:16:09;8.23;;;7.00;;
12790;SDS011;6459;42.678;23.310;2022-08-21T09:18:50;14.40;;;7.00;;
12790;SDS011;6459;42.678;23.310;2022-08-21T09:21:28;10.13;;;6.70;;
12790;SDS011;6459;42.678;23.310;2022-08-21T09:24:08;10.67;;;7.63;;
12790;SDS011;6459;42.678;23.310;2022-08-21T09:26:50;10.07;;;7.27;;
12790;SDS011;6459;42.678;23.310;2022-08-21T09:29:25;13.40;;;6.73;;
12790;SDS011;6459;42.678;23.310;2022-08-21T09:31:59;11.17;;;6.63;;
12790;SDS011;6459;42.678;23.310;2022-08-21T09:34:28;9.50;;;6.67;;
12790;SDS011;6459;42.678;23.310;2022-08-21T09:36:58;9.03;;;6.00;;
12790;SDS011;6459;42.678;23.310;2022-08-21T09:39:28;8.03;;;6.70;;
12790;SDS011;6459;42.678;23.310;2022-08-21T09:42:09;10.27;;;5.90;;
12790;SDS011;6459;42.678;23.310;2022-08-21T09:44:38;11.27;;;5.77;;
12790;SDS011;6459;42.678;23.310;2022-08-21T09:47:11;14.73;;;5.80;;
12790;SDS011;6459;42.678;23.310;2022-08-21T09:49:40;8.90;;;6.27;;
12790;SDS011;6459;42.678;23.310;2022-08-21T09:52:15;10.27;;;5.27;;
12790;SDS011;6459;42.678;23.310;2022-08-21T09:54:49;11.30;;;6.00;;
12790;SDS011;6459;42.678;23.310;2022-08-21T09:57:22;7.07;;;5.30;;
12790;SDS011;6459;42.678;23.310;2022-08-21T10:00:15;8.63;;;5.47;;
12790;SDS011;6459;42.678;23.310;2022-08-21T10:02:48;8.73;;;5.03;;
12790;SDS011;6459;42.678;23.310;2022-08-21T10:05:17;9.33;;;5.10;;
12790;SDS011;6459;42.678;23.310;2022-08-21T10:07:48;10.23;;;4.57;;
12790;SDS011;6459;42.678;23.310;2022-08-21T10:10:18;10.67;;;5.00;;
12790;SDS011;6459;42.678;23.310;2022-08-21T10:12:49;9.20;;;5.27;;
12790;SDS011;6459;42.678;23.310;2022-08-21T10:15:24;11.00;;;4.93;;
12790;SDS011;6459;42.678;23.310;2022-08-21T10:18:09;6.70;;;4.70;;
12790;SDS011;6459;42.678;23.310;2022-08-21T10:20:50;8.40;;;5.13;;
12790;SDS011;6459;42.678;23.310;2022-08-21T10:23:28;7.40;;;5.27;;
12790;SDS011;6459;42.678;23.310;2022-08-21T10:26:08;10.00;;;5.33;;
12790;SDS011;6459;42.678;23.310;2022-08-21T10:28:54;8.70;;;4.93;;
12790;SDS011;6459;42.678;23.310;2022-08-21T10:31:32;12.33;;;5.67;;
12790;SDS011;6459;42.678;23.310;2022-08-21T10:34:17;7.10;;;4.83;;
12790;SDS011;6459;42.678;23.310;2022-08-21T10:37:07;8.23;;;5.30;;
12790;SDS011;6459;42.678;23.310;2022-08-21T10:39:50;7.33;;;5.43;;
12790;SDS011;6459;42.678;23.310;2022-08-21T10:42:32;8.37;;;5.33;;
12790;SDS011;6459;42.678;23.310;2022-08-21T10:45:10;9.50;;;5.50;;
12790;SDS011;6459;42.678;23.310;2022-08-21T10:47:52;10.37;;;5.10;;
12790;SDS011;6459;42.678;23.310;2022-08-21T10:50:28;8.93;;;5.40;;
12790;SDS011;6459;42.678;23.310;2022-08-21T10:53:06;9.57;;;5.40;;
12790;SDS011;6459;42.678;23.310;2022-08-21T10:55:50;6.47;;;5.07;;
12790;SDS011;6459;42.678;23.310;2022-08-21T10:58:24;11.73;;;5.77;;
12790;SDS011;6459;42.678;23.310;2022-08-21T11:00:57;8.87;;;4.80;;
12790;SDS011;6459;42.678;23.310;2022-08-21T11:03:32;10.40;;;5.87;;
12790;SDS011;6459;42.678;23.310;2022-08-21T11:06:08;9.30;;;5.33;;
12790;SDS011;6459;42.678;23.310;2022-08-21T11:08:41;12.53;;;7.07;;
12790;SDS011;6459;42.678;23.310;2022-08-21T11:11:14;9.17;;;5.43;;
12790;SDS011;6459;42.678;23.310;2022-08-21T11:13:48;8.67;;;6.30;;
12790;SDS011;6459;42.678;23.310;2022-08-21T11:16:21;10.07;;;5.57;;
12790;SDS011;6459;42.678;23.310;2022-08-21T11:18:55;8.53;;;5.57;;
12790;SDS011;6459;42.678;23.310;2022-08-21T11:21:32;8.20;;;5.13;;
12790;SDS011;6459;42.678;23.310;2022-08-21T11:24:13;7.43;;;5.40;;
12790;SDS011;6459;42.678;23.310;2022-08-21T11:26:59;11.70;;;5.40;;
12790;SDS011;6459;42.678;23.310;2022-08-21T11:29:33;10.90;;;6.97;;
12790;SDS011;6459;42.678;23.310;2022-08-21T11:32:07;8.13;;;6.13;;
12790;SDS011;6459;42.678;23.310;2022-08-21T11:34:54;7.83;;;5.23;;
12790;SDS011;6459;42.678;23.310;2022-08-21T11:37:35;6.93;;;5.13;;
12790;SDS011;6459;42.678;23.310;2022-08-21T11:40:19;5.17;;;4.50;;
12790;SDS011;6459;42.678;23.310;2022-08-21T11:43:06;6.43;;;4.77;;
12790;SDS011;6459;42.678;23.310;2022-08-21T11:45:45;8.40;;;4.93;;
12790;SDS011;6459;42.678;23.310;2022-08-21T11:48:21;11.50;;;4.73;;
12790;SDS011;6459;42.678;23.310;2022-08-21T11:51:04;7.57;;;4.83;;
12790;SDS011;6459;42.678;23.310;2022-08-21T11:53:38;7.33;;;4.83;;
12790;SDS011;6459;42.678;23.310;2022-08-21T11:56:22;26.10;;;15.23;;
12790;SDS011;6459;42.678;23.310;2022-08-21T11:58:53;7.40;;;6.37;;
12790;SDS011;6459;42.678;23.310;2022-08-21T12:01:54;7.70;;;5.23;;
12790;SDS011;6459;42.678;23.310;2022-08-21T12:04:25;9.73;;;4.83;;
12790;SDS011;6459;42.678;23.310;2022-08-21T12:07:08;9.50;;;4.90;;
12790;SDS011;6459;42.678;23.310;2022-08-21T12:09:40;6.47;;;4.70;;
12790;SDS011;6459;42.678;23.310;2022-08-21T12:12:24;12.50;;;4.87;;
12790;SDS011;6459;42.678;23.310;2022-08-21T12:17:55;7.33;;;4.97;;
12790;SDS011;6459;42.678;23.310;2022-08-21T12:20:38;7.60;;;4.93;;
12790;SDS011;6459;42.678;23.310;2022-08-21T12:23:24;9.90;;;7.93;;
12790;SDS011;6459;42.678;23.310;2022-08-21T12:26:03;12.07;;;6.90;;
12790;SDS011;6459;42.678;23.310;2022-08-21T12:28:51;6.70;;;4.77;;
12790;SDS011;6459;42.678;23.310;2022-08-21T12:31:30;7.10;;;4.50;;
12790;SDS011;6459;42.678;23.310;2022-08-21T12:33:58;5.67;;;4.17;;
12790;SDS011;6459;42.678;23.310;2022-08-21T12:36:37;6.03;;;4.13;;
12790;SDS011;6459;42.678;23.310;2022-08-21T12:39:13;6.80;;;4.77;;
12790;SDS011;6459;42.678;23.310;2022-08-21T12:41:48;8.50;;;4.77;;
12790;SDS011;6459;42.678;23.310;2022-08-21T12:44:21;5.00;;;4.47;;
12790;SDS011;6459;42.678;23.310;2022-08-21T12:46:56;7.83;;;5.33;;
12790;SDS011;6459;42.678;23.310;2022-08-21T12:49:27;5.77;;;4.40;;
12790;SDS011;6459;42.678;23.310;2022-08-21T12:52:01;11.77;;;4.83;;
12790;SDS011;6459;42.678;23.310;2022-08-21T12:54:37;20.30;;;15.10;;
12790;SDS011;6459;42.678;23.310;2022-08-21T12:57:16;9.73;;;7.07;;
12790;SDS011;6459;42.678;23.310;2022-08-21T12:59:51;5.20;;;4.10;;
12790;SDS011;6459;42.678;23.310;2022-08-21T13:02:22;5.00;;;4.47;;
12790;SDS011;6459;42.678;23.310;2022-08-21T13:05:23;27.30;;;16.13;;
12790;SDS011;6459;42.678;23.310;2022-08-21T13:07:58;20.57;;;13.17;;
12790;SDS011;6459;42.678;23.310;2022-08-21T13:10:31;6.00;;;4.57;;
12790;SDS011;6459;42.678;23.310;2022-08-21T13:13:03;6.67;;;4.30;;
12790;SDS011;6459;42.678;23.310;2022-08-21T13:15:39;6.37;;;4.53;;
12790;SDS011;6459;42.678;23.310;2022-08-21T13:18:19;4.30;;;3.93;;
12790;SDS011;6459;42.678;23.310;2022-08-21T13:20:49;7.23;;;4.47;;
12790;SDS011;6459;42.678;23.310;2022-08-21T13:23:20;7.30;;;4.23;;
12790;SDS011;6459;42.678;23.310;2022-08-21T13:25:51;5.43;;;4.50;;
12790;SDS011;6459;42.678;23.310;2022-08-21T13:28:21;6.43;;;5.10;;
12790;SDS011;6459;42.678;23.310;2022-08-21T13:30:50;7.20;;;4.73;;
12790;SDS011;6459;42.678;23.310;2022-08-21T13:33:22;12.97;;;4.70;;
12790;SDS011;6459;42.678;23.310;2022-08-21T13:36:04;5.87;;;4.33;;
12790;SDS011;6459;42.678;23.310;2022-08-21T13:38:37;5.53;;;4.43;;
12790;SDS011;6459;42.678;23.310;2022-08-21T13:41:10;8.87;;;4.50;;
12790;SDS011;6459;42.678;23.310;2022-08-21T13:43:49;7.40;;;5.03;;
12790;SDS011;6459;42.678;23.310;2022-08-21T13:46:24;6.57;;;4.70;;
12790;SDS011;6459;42.678;23.310;2022-08-21T13:48:58;6.17;;;4.30;;
12790;SDS011;6459;42.678;23.310;2022-08-21T13:51:29;4.83;;;4.33;;
12790;SDS011;6459;42.678;23.310;2022-08-21T13:53:58;9.87;;;4.30;;
12790;SDS011;6459;42.678;23.310;2022-08-21T13:56:28;7.53;;;4.47;;
12790;SDS011;6459;42.678;23.310;2022-08-21T13:59:00;6.03;;;4.17;;
12790;SDS011;6459;42.678;23.310;2022-08-21T14:01:31;5.50;;;4.27;;
12790;SDS011;6459;42.678;23.310;2022-08-21T14:04:02;7.23;;;4.73;;
12790;SDS011;6459;42.678;23.310;2022-08-21T14:06:35;6.97;;;4.27;;
12790;SDS011;6459;42.678;23.310;2022-08-21T14:09:07;4.90;;;4.20;;
12790;SDS011;6459;42.678;23.310;2022-08-21T14:11:39;6.90;;;4.30;;
12790;SDS011;6459;42.678;23.310;2022-08-21T14:14:16;9.77;;;4.00;;
12790;SDS011;6459;42.678;23.310;2022-08-21T14:16:53;9.07;;;5.37;;
12790;SDS011;6459;42.678;23.310;2022-08-21T14:19:23;11.10;;;8.10;;
12790;SDS011;6459;42.678;23.310;2022-08-21T14:21:54;11.77;;;8.87;;
12790;SDS011;6459;42.678;23.310;2022-08-21T14:24:26;12.50;;;7.63;;
12790;SDS011;6459;42.678;23.310;2022-08-21T14:26:57;8.67;;;6.17;;
12790;SDS011;6459;42.678;23.310;2022-08-21T14:29:34;9.10;;;5.83;;
12790;SDS011;6459;42.678;23.310;2022-08-21T14:32:13;8.70;;;5.40;;
12790;SDS011;6459;42.678;23.310;2022-08-21T14:34:50;8.73;;;4.70;;
12790;SDS011;6459;42.678;23.310;2022-08-21T14:37:24;8.73;;;4.70;;
12790;SDS011;6459;42.678;23.310;2022-08-21T14:39:53;11.03;;;6.37;;
12790;SDS011;6459;42.678;23.310;2022-08-21T14:42:21;9.63;;;6.13;;
12790;SDS011;6459;42.678;23.310;2022-08-21T14:44:59;8.43;;;5.67;;
12790;SDS011;6459;42.678;23.310;2022-08-21T14:47:41;8.30;;;4.30;;
12790;SDS011;6459;42.678;23.310;2022-08-21T14:50:10;6.93;;;5.17;;
12790;SDS011;6459;42.678;23.310;2022-08-21T14:52:40;10.30;;;5.40;;
12790;SDS011;6459;42.678;23.310;2022-08-21T14:55:09;7.17;;;5.10;;
12790;SDS011;6459;42.678;23.310;2022-08-21T14:57:40;8.27;;;5.70;;
12790;SDS011;6459;42.678;23.310;2022-08-21T15:00:12;9.33;;;5.17;;
12790;SDS011;6459;42.678;23.310;2022-08-21T15:02:43;8.53;;;6.13;;
12790;SDS011;6459;42.678;23.310;2022-08-21T15:05:14;8.97;;;6.10;;
12790;SDS011;6459;42.678;23.310;2022-08-21T15:07:58;7.53;;;5.40;;
12790;SDS011;6459;42.678;23.310;2022-08-21T15:10:26;9.40;;;6.20;;
12790;SDS011;6459;42.678;23.310;2022-08-21T15:12:55;8.83;;;6.50;;